sensor_id;sensor_type;location;lat;lon;timestamp;P1;durP1;ratioP1;P2;durP2;ratioP2
4766;SDS011;2397;53.576;9.746;2022-12-18T00:00:47;15.53;;;9.27;;
4766;SDS011;2397;53.576;9.746;2022-12-18T00:03:14;14.30;;;9.53;;
4766;SDS011;2397;53.576;9.746;2022-12-18T00:05:48;11.63;;;8.30;;
4766;SDS011;2397;53.576;9.746;2022-12-18T00:08:15;14.40;;;9.03;;
4766;SDS011;2397;53.576;9.746;2022-12-18T00:10:43;13.63;;;8.30;;
4766;SDS011;2397;53.576;9.746;2022-12-18T00:13:10;14.20;;;9.03;;
4766;SDS011;2397;53.576;9.746;2022-12-18T00:15:37;16.73;;;9.50;;
4766;SDS011;2397;53.576;9.746;2022-12-18T00:18:05;14.17;;;8.63;;
4766;SDS011;2397;53.576;9.746;2022-12-18T00:20:35;13.03;;;8.40;;
4766;SDS011;2397;53.576;9.746;2022-12-18T00:23:03;12.87;;;9.20;;
4766;SDS011;2397;53.576;9.746;2022-12-18T00:25:29;14.20;;;9.17;;
4766;SDS011;2397;53.576;9.746;2022-12-18T00:27:58;13.83;;;8.60;;
4766;SDS011;2397;53.576;9.746;2022-12-18T00:30:25;12.77;;;8.80;;
4766;SDS011;2397;53.576;9.746;2022-12-18T00:32:51;19.10;;;8.47;;
4766;SDS011;2397;53.576;9.746;2022-12-18T00:35:18;16.23;;;9.40;;
4766;SDS011;2397;53.576;9.746;2022-12-18T00:37:44;13.70;;;9.10;;
4766;SDS011;2397;53.576;9.746;2022-12-18T00:40:11;14.83;;;8.50;;
4766;SDS011;2397;53.576;9.746;2022-12-18T00:42:37;13.60;;;7.97;;
4766;SDS011;2397;53.576;9.746;2022-12-18T00:45:29;12.40;;;8.53;;
4766;SDS011;2397;53.576;9.746;2022-12-18T00:47:56;13.60;;;8.73;;
4766;SDS011;2397;53.576;9.746;2022-12-18T00:50:23;13.90;;;8.80;;
4766;SDS011;2397;53.576;9.746;2022-12-18T00:52:50;15.60;;;9.33;;
4766;SDS011;2397;53.576;9.746;2022-12-18T00:55:18;13.97;;;9.80;;
4766;SDS011;2397;53.576;9.746;2022-12-18T00:57:44;22.87;;;9.60;;
4766;SDS011;2397;53.576;9.746;2022-12-18T01:00:12;14.50;;;9.07;;
4766;SDS011;2397;53.576;9.746;2022-12-18T01:02:40;14.07;;;8.80;;
4766;SDS011;2397;53.576;9.746;2022-12-18T01:05:07;14.87;;;9.20;;
4766;SDS011;2397;53.576;9.746;2022-12-18T01:07:35;13.70;;;8.80;;
4766;SDS011;2397;53.576;9.746;2022-12-18T01:10:01;15.37;;;9.27;;
4766;SDS011;2397;53.576;9.746;2022-12-18T01:12:28;14.00;;;8.97;;
4766;SDS011;2397;53.576;9.746;2022-12-18T01:14:55;19.60;;;8.97;;
4766;SDS011;2397;53.576;9.746;2022-12-18T01:17:21;20.53;;;9.10;;
4766;SDS011;2397;53.576;9.746;2022-12-18T01:19:48;14.13;;;8.63;;
4766;SDS011;2397;53.576;9.746;2022-12-18T01:22:14;13.37;;;8.43;;
4766;SDS011;2397;53.576;9.746;2022-12-18T01:24:41;17.43;;;8.43;;
4766;SDS011;2397;53.576;9.746;2022-12-18T01:27:07;10.47;;;7.70;;
4766;SDS011;2397;53.576;9.746;2022-12-18T01:29:34;11.80;;;7.47;;
4766;SDS011;2397;53.576;9.746;2022-12-18T01:32:00;16.20;;;9.13;;
4766;SDS011;2397;53.576;9.746;2022-12-18T01:34:27;16.93;;;9.20;;
4766;SDS011;2397;53.576;9.746;2022-12-18T01:36:53;10.80;;;7.10;;
4766;SDS011;2397;53.576;9.746;2022-12-18T01:39:19;13.20;;;7.20;;
4766;SDS011;2397;53.576;9.746;2022-12-18T01:41:46;19.00;;;9.13;;
4766;SDS011;2397;53.576;9.746;2022-12-18T01:47:30;14.23;;;8.90;;
4766;SDS011;2397;53.576;9.746;2022-12-18T01:55:42;27.57;;;8.77;;
4766;SDS011;2397;53.576;9.746;2022-12-18T01:58:14;11.53;;;7.40;;
4766;SDS011;2397;53.576;9.746;2022-12-18T02:00:41;10.87;;;8.00;;
4766;SDS011;2397;53.576;9.746;2022-12-18T02:03:08;14.03;;;8.70;;
4766;SDS011;2397;53.576;9.746;2022-12-18T02:05:56;9.97;;;7.00;;
4766;SDS011;2397;53.576;9.746;2022-12-18T02:08:33;14.97;;;8.83;;
4766;SDS011;2397;53.576;9.746;2022-12-18T02:11:18;16.80;;;8.87;;
4766;SDS011;2397;53.576;9.746;2022-12-18T02:14:11;16.20;;;7.17;;
4766;SDS011;2397;53.576;9.746;2022-12-18T02:17:14;15.10;;;8.90;;
4766;SDS011;2397;53.576;9.746;2022-12-18T02:26:02;13.80;;;8.30;;
4766;SDS011;2397;53.576;9.746;2022-12-18T02:28:52;11.37;;;8.03;;
4766;SDS011;2397;53.576;9.746;2022-12-18T02:31:24;20.20;;;8.70;;
4766;SDS011;2397;53.576;9.746;2022-12-18T02:33:56;16.00;;;8.50;;
4766;SDS011;2397;53.576;9.746;2022-12-18T02:36:28;14.30;;;9.40;;
4766;SDS011;2397;53.576;9.746;2022-12-18T02:38:57;11.10;;;7.30;;
4766;SDS011;2397;53.576;9.746;2022-12-18T02:41:25;15.27;;;9.30;;
4766;SDS011;2397;53.576;9.746;2022-12-18T02:43:53;14.00;;;7.83;;
4766;SDS011;2397;53.576;9.746;2022-12-18T02:46:32;13.80;;;8.10;;
4766;SDS011;2397;53.576;9.746;2022-12-18T02:49:04;14.07;;;8.90;;
4766;SDS011;2397;53.576;9.746;2022-12-18T02:51:43;10.40;;;7.90;;
4766;SDS011;2397;53.576;9.746;2022-12-18T02:54:20;20.13;;;8.70;;
4766;SDS011;2397;53.576;9.746;2022-12-18T02:56:55;17.70;;;8.47;;
4766;SDS011;2397;53.576;9.746;2022-12-18T02:59:30;11.57;;;8.07;;
4766;SDS011;2397;53.576;9.746;2022-12-18T03:02:16;11.83;;;7.70;;
4766;SDS011;2397;53.576;9.746;2022-12-18T03:04:49;14.97;;;8.90;;
4766;SDS011;2397;53.576;9.746;2022-12-18T03:07:28;14.27;;;7.83;;
4766;SDS011;2397;53.576;9.746;2022-12-18T03:10:02;13.33;;;7.70;;
4766;SDS011;2397;53.576;9.746;2022-12-18T03:12:32;15.13;;;8.37;;
4766;SDS011;2397;53.576;9.746;2022-12-18T03:15:04;10.50;;;7.43;;
4766;SDS011;2397;53.576;9.746;2022-12-18T03:17:33;12.20;;;7.83;;
4766;SDS011;2397;53.576;9.746;2022-12-18T03:20:08;13.33;;;7.80;;
4766;SDS011;2397;53.576;9.746;2022-12-18T03:22:37;13.40;;;6.87;;
4766;SDS011;2397;53.576;9.746;2022-12-18T03:25:06;14.30;;;8.57;;
4766;SDS011;2397;53.576;9.746;2022-12-18T03:27:36;15.40;;;8.23;;
4766;SDS011;2397;53.576;9.746;2022-12-18T03:30:08;11.20;;;7.60;;
4766;SDS011;2397;53.576;9.746;2022-12-18T03:32:48;12.57;;;7.70;;
4766;SDS011;2397;53.576;9.746;2022-12-18T03:35:38;10.50;;;8.00;;
4766;SDS011;2397;53.576;9.746;2022-12-18T03:38:06;12.10;;;7.60;;
4766;SDS011;2397;53.576;9.746;2022-12-18T03:46:27;14.60;;;7.27;;
4766;SDS011;2397;53.576;9.746;2022-12-18T03:51:57;14.17;;;8.07;;
4766;SDS011;2397;53.576;9.746;2022-12-18T03:54:29;14.67;;;7.83;;
4766;SDS011;2397;53.576;9.746;2022-12-18T03:57:11;9.30;;;7.13;;
4766;SDS011;2397;53.576;9.746;2022-12-18T03:59:47;10.50;;;6.83;;
4766;SDS011;2397;53.576;9.746;2022-12-18T04:02:16;11.30;;;7.47;;
4766;SDS011;2397;53.576;9.746;2022-12-18T04:04:44;11.40;;;7.60;;
4766;SDS011;2397;53.576;9.746;2022-12-18T04:07:12;11.23;;;6.70;;
4766;SDS011;2397;53.576;9.746;2022-12-18T04:09:40;15.00;;;7.60;;
4766;SDS011;2397;53.576;9.746;2022-12-18T04:12:08;9.77;;;7.53;;
4766;SDS011;2397;53.576;9.746;2022-12-18T04:14:35;14.23;;;7.80;;
4766;SDS011;2397;53.576;9.746;2022-12-18T04:17:02;13.80;;;8.20;;
4766;SDS011;2397;53.576;9.746;2022-12-18T04:19:28;10.83;;;8.73;;
4766;SDS011;2397;53.576;9.746;2022-12-18T04:21:55;9.40;;;8.43;;
4766;SDS011;2397;53.576;9.746;2022-12-18T04:24:21;11.73;;;6.87;;
4766;SDS011;2397;53.576;9.746;2022-12-18T04:26:47;11.47;;;8.10;;
4766;SDS011;2397;53.576;9.746;2022-12-18T04:29:14;8.40;;;6.57;;
4766;SDS011;2397;53.576;9.746;2022-12-18T04:31:40;11.33;;;7.00;;
4766;SDS011;2397;53.576;9.746;2022-12-18T04:34:07;12.73;;;7.93;;
4766;SDS011;2397;53.576;9.746;2022-12-18T04:36:33;12.53;;;7.83;;
4766;SDS011;2397;53.576;9.746;2022-12-18T04:38:59;8.90;;;6.90;;
4766;SDS011;2397;53.576;9.746;2022-12-18T04:41:26;10.50;;;6.97;;
4766;SDS011;2397;53.576;9.746;2022-12-18T04:43:52;7.50;;;6.20;;
4766;SDS011;2397;53.576;9.746;2022-12-18T04:46:19;9.03;;;6.80;;
4766;SDS011;2397;53.576;9.746;2022-12-18T04:48:46;9.13;;;6.53;;
4766;SDS011;2397;53.576;9.746;2022-12-18T04:51:13;9.70;;;7.37;;
4766;SDS011;2397;53.576;9.746;2022-12-18T04:53:39;10.50;;;6.93;;
4766;SDS011;2397;53.576;9.746;2022-12-18T04:56:07;10.73;;;6.80;;
4766;SDS011;2397;53.576;9.746;2022-12-18T04:58:36;12.70;;;7.03;;
4766;SDS011;2397;53.576;9.746;2022-12-18T05:01:03;8.60;;;6.50;;
4766;SDS011;2397;53.576;9.746;2022-12-18T05:03:30;9.47;;;6.37;;
4766;SDS011;2397;53.576;9.746;2022-12-18T05:05:57;10.97;;;6.47;;
4766;SDS011;2397;53.576;9.746;2022-12-18T05:08:23;10.20;;;6.10;;
4766;SDS011;2397;53.576;9.746;2022-12-18T05:10:49;13.70;;;7.13;;
4766;SDS011;2397;53.576;9.746;2022-12-18T05:13:23;10.67;;;6.37;;
4766;SDS011;2397;53.576;9.746;2022-12-18T05:15:53;10.80;;;6.00;;
4766;SDS011;2397;53.576;9.746;2022-12-18T05:18:21;11.77;;;6.50;;
4766;SDS011;2397;53.576;9.746;2022-12-18T05:20:48;9.23;;;6.67;;
4766;SDS011;2397;53.576;9.746;2022-12-18T05:23:16;12.33;;;7.27;;
4766;SDS011;2397;53.576;9.746;2022-12-18T05:25:42;8.13;;;6.27;;
4766;SDS011;2397;53.576;9.746;2022-12-18T05:28:16;10.70;;;6.10;;
4766;SDS011;2397;53.576;9.746;2022-12-18T05:30:42;12.63;;;5.87;;
4766;SDS011;2397;53.576;9.746;2022-12-18T05:33:08;11.70;;;6.20;;
4766;SDS011;2397;53.576;9.746;2022-12-18T05:35:35;11.70;;;6.43;;
4766;SDS011;2397;53.576;9.746;2022-12-18T05:38:01;11.10;;;6.67;;
4766;SDS011;2397;53.576;9.746;2022-12-18T05:40:27;10.13;;;6.73;;
4766;SDS011;2397;53.576;9.746;2022-12-18T05:42:55;11.50;;;5.80;;
4766;SDS011;2397;53.576;9.746;2022-12-18T05:45:24;11.20;;;6.47;;
4766;SDS011;2397;53.576;9.746;2022-12-18T05:47:51;7.33;;;5.37;;
4766;SDS011;2397;53.576;9.746;2022-12-18T05:50:17;8.33;;;5.70;;
4766;SDS011;2397;53.576;9.746;2022-12-18T05:52:44;6.50;;;5.33;;
4766;SDS011;2397;53.576;9.746;2022-12-18T05:55:10;6.20;;;5.60;;
4766;SDS011;2397;53.576;9.746;2022-12-18T05:57:36;9.20;;;6.07;;
4766;SDS011;2397;53.576;9.746;2022-12-18T06:00:03;12.60;;;6.93;;
4766;SDS011;2397;53.576;9.746;2022-12-18T06:02:30;9.77;;;6.73;;
4766;SDS011;2397;53.576;9.746;2022-12-18T06:04:56;8.33;;;5.90;;
4766;SDS011;2397;53.576;9.746;2022-12-18T06:07:23;9.53;;;5.90;;
4766;SDS011;2397;53.576;9.746;2022-12-18T06:09:49;11.10;;;6.23;;
4766;SDS011;2397;53.576;9.746;2022-12-18T06:12:15;9.40;;;6.13;;
4766;SDS011;2397;53.576;9.746;2022-12-18T06:14:42;13.93;;;5.80;;
4766;SDS011;2397;53.576;9.746;2022-12-18T06:17:08;9.10;;;6.23;;
4766;SDS011;2397;53.576;9.746;2022-12-18T06:19:35;10.47;;;7.20;;
4766;SDS011;2397;53.576;9.746;2022-12-18T06:22:01;6.57;;;5.13;;
4766;SDS011;2397;53.576;9.746;2022-12-18T06:24:27;11.17;;;6.80;;
4766;SDS011;2397;53.576;9.746;2022-12-18T06:26:54;11.40;;;5.83;;
4766;SDS011;2397;53.576;9.746;2022-12-18T06:29:20;9.23;;;6.60;;
4766;SDS011;2397;53.576;9.746;2022-12-18T06:31:47;9.60;;;5.80;;
4766;SDS011;2397;53.576;9.746;2022-12-18T06:34:13;10.80;;;7.13;;
4766;SDS011;2397;53.576;9.746;2022-12-18T06:36:40;14.43;;;6.73;;
4766;SDS011;2397;53.576;9.746;2022-12-18T06:39:06;7.60;;;5.37;;
4766;SDS011;2397;53.576;9.746;2022-12-18T06:41:34;8.17;;;5.63;;
4766;SDS011;2397;53.576;9.746;2022-12-18T06:44:00;11.37;;;5.93;;
4766;SDS011;2397;53.576;9.746;2022-12-18T06:46:27;8.73;;;5.70;;
4766;SDS011;2397;53.576;9.746;2022-12-18T06:48:53;11.53;;;5.73;;
4766;SDS011;2397;53.576;9.746;2022-12-18T06:51:20;13.60;;;6.20;;
4766;SDS011;2397;53.576;9.746;2022-12-18T06:53:49;14.30;;;7.40;;
4766;SDS011;2397;53.576;9.746;2022-12-18T06:56:16;12.60;;;6.20;;
4766;SDS011;2397;53.576;9.746;2022-12-18T06:58:42;10.63;;;6.00;;
4766;SDS011;2397;53.576;9.746;2022-12-18T07:01:10;13.33;;;7.60;;
4766;SDS011;2397;53.576;9.746;2022-12-18T07:03:38;12.33;;;7.07;;
4766;SDS011;2397;53.576;9.746;2022-12-18T07:06:11;8.60;;;5.90;;
4766;SDS011;2397;53.576;9.746;2022-12-18T07:08:40;10.37;;;6.90;;
4766;SDS011;2397;53.576;9.746;2022-12-18T07:11:06;7.50;;;5.10;;
4766;SDS011;2397;53.576;9.746;2022-12-18T07:13:32;8.73;;;6.00;;
4766;SDS011;2397;53.576;9.746;2022-12-18T07:18:42;9.40;;;6.07;;
4766;SDS011;2397;53.576;9.746;2022-12-18T07:21:10;9.73;;;6.10;;
4766;SDS011;2397;53.576;9.746;2022-12-18T07:23:39;9.83;;;6.40;;
4766;SDS011;2397;53.576;9.746;2022-12-18T07:26:07;6.77;;;5.37;;
4766;SDS011;2397;53.576;9.746;2022-12-18T07:28:36;11.03;;;5.20;;
4766;SDS011;2397;53.576;9.746;2022-12-18T07:31:07;9.10;;;5.30;;
4766;SDS011;2397;53.576;9.746;2022-12-18T07:33:39;8.30;;;5.37;;
4766;SDS011;2397;53.576;9.746;2022-12-18T07:36:07;5.53;;;4.97;;
4766;SDS011;2397;53.576;9.746;2022-12-18T07:38:35;17.00;;;6.70;;
4766;SDS011;2397;53.576;9.746;2022-12-18T07:43:33;9.60;;;5.40;;
4766;SDS011;2397;53.576;9.746;2022-12-18T07:46:00;10.00;;;5.60;;
4766;SDS011;2397;53.576;9.746;2022-12-18T07:48:28;10.07;;;5.73;;
4766;SDS011;2397;53.576;9.746;2022-12-18T07:50:58;8.23;;;5.33;;
4766;SDS011;2397;53.576;9.746;2022-12-18T07:53:25;10.37;;;5.70;;
4766;SDS011;2397;53.576;9.746;2022-12-18T07:56:11;15.63;;;5.57;;
4766;SDS011;2397;53.576;9.746;2022-12-18T07:58:56;9.63;;;5.20;;
4766;SDS011;2397;53.576;9.746;2022-12-18T08:01:24;11.33;;;5.80;;
4766;SDS011;2397;53.576;9.746;2022-12-18T08:03:51;9.07;;;5.63;;
4766;SDS011;2397;53.576;9.746;2022-12-18T08:06:17;9.70;;;5.60;;
4766;SDS011;2397;53.576;9.746;2022-12-18T08:08:47;8.50;;;5.37;;
4766;SDS011;2397;53.576;9.746;2022-12-18T08:11:14;7.90;;;5.53;;
4766;SDS011;2397;53.576;9.746;2022-12-18T08:13:40;8.83;;;5.30;;
4766;SDS011;2397;53.576;9.746;2022-12-18T08:16:07;8.93;;;5.70;;
4766;SDS011;2397;53.576;9.746;2022-12-18T08:18:34;8.57;;;5.80;;
4766;SDS011;2397;53.576;9.746;2022-12-18T08:21:16;11.30;;;6.20;;
4766;SDS011;2397;53.576;9.746;2022-12-18T08:23:42;10.67;;;5.90;;
4766;SDS011;2397;53.576;9.746;2022-12-18T08:26:09;8.87;;;6.20;;
4766;SDS011;2397;53.576;9.746;2022-12-18T08:28:37;7.07;;;5.30;;
4766;SDS011;2397;53.576;9.746;2022-12-18T08:31:03;9.43;;;6.13;;
4766;SDS011;2397;53.576;9.746;2022-12-18T08:33:30;10.33;;;5.60;;
4766;SDS011;2397;53.576;9.746;2022-12-18T08:36:00;6.50;;;5.07;;
4766;SDS011;2397;53.576;9.746;2022-12-18T08:38:27;6.40;;;5.40;;
4766;SDS011;2397;53.576;9.746;2022-12-18T08:41:00;10.40;;;5.50;;
4766;SDS011;2397;53.576;9.746;2022-12-18T08:43:29;14.23;;;6.67;;
4766;SDS011;2397;53.576;9.746;2022-12-18T08:46:14;9.20;;;5.13;;
4766;SDS011;2397;53.576;9.746;2022-12-18T08:48:43;7.47;;;5.43;;
4766;SDS011;2397;53.576;9.746;2022-12-18T08:51:10;9.10;;;5.27;;
4766;SDS011;2397;53.576;9.746;2022-12-18T08:53:37;8.77;;;6.00;;
4766;SDS011;2397;53.576;9.746;2022-12-18T08:56:04;6.90;;;5.37;;
4766;SDS011;2397;53.576;9.746;2022-12-18T08:58:31;7.60;;;5.67;;
4766;SDS011;2397;53.576;9.746;2022-12-18T09:01:01;8.13;;;5.50;;
4766;SDS011;2397;53.576;9.746;2022-12-18T09:03:30;10.00;;;6.10;;
4766;SDS011;2397;53.576;9.746;2022-12-18T09:05:57;7.00;;;5.80;;
4766;SDS011;2397;53.576;9.746;2022-12-18T09:08:24;10.30;;;6.30;;
4766;SDS011;2397;53.576;9.746;2022-12-18T09:10:50;11.70;;;6.70;;
4766;SDS011;2397;53.576;9.746;2022-12-18T09:13:18;13.03;;;6.53;;
4766;SDS011;2397;53.576;9.746;2022-12-18T09:15:46;13.20;;;5.83;;
4766;SDS011;2397;53.576;9.746;2022-12-18T09:18:16;8.53;;;6.00;;
4766;SDS011;2397;53.576;9.746;2022-12-18T09:20:44;7.37;;;5.40;;
4766;SDS011;2397;53.576;9.746;2022-12-18T09:23:11;10.23;;;5.50;;
4766;SDS011;2397;53.576;9.746;2022-12-18T09:25:38;8.47;;;5.53;;
4766;SDS011;2397;53.576;9.746;2022-12-18T09:28:06;11.20;;;5.90;;
4766;SDS011;2397;53.576;9.746;2022-12-18T09:30:37;7.03;;;4.70;;
4766;SDS011;2397;53.576;9.746;2022-12-18T09:33:05;9.37;;;6.60;;
4766;SDS011;2397;53.576;9.746;2022-12-18T09:35:32;11.07;;;6.70;;
4766;SDS011;2397;53.576;9.746;2022-12-18T09:37:59;7.73;;;5.83;;
4766;SDS011;2397;53.576;9.746;2022-12-18T09:40:26;10.03;;;6.70;;
4766;SDS011;2397;53.576;9.746;2022-12-18T09:42:59;10.50;;;5.73;;
4766;SDS011;2397;53.576;9.746;2022-12-18T09:45:30;11.87;;;6.67;;
4766;SDS011;2397;53.576;9.746;2022-12-18T09:48:15;14.47;;;6.10;;
4766;SDS011;2397;53.576;9.746;2022-12-18T09:50:49;7.20;;;5.67;;
4766;SDS011;2397;53.576;9.746;2022-12-18T09:53:19;9.67;;;6.63;;
4766;SDS011;2397;53.576;9.746;2022-12-18T09:55:50;10.17;;;5.80;;
4766;SDS011;2397;53.576;9.746;2022-12-18T09:58:20;10.33;;;6.93;;
4766;SDS011;2397;53.576;9.746;2022-12-18T10:00:54;9.50;;;5.70;;
4766;SDS011;2397;53.576;9.746;2022-12-18T10:03:21;9.53;;;6.77;;
4766;SDS011;2397;53.576;9.746;2022-12-18T10:14:03;8.53;;;5.40;;
4766;SDS011;2397;53.576;9.746;2022-12-18T10:19:39;7.77;;;5.57;;
4766;SDS011;2397;53.576;9.746;2022-12-18T10:24:55;9.00;;;6.87;;
4766;SDS011;2397;53.576;9.746;2022-12-18T10:27:25;9.07;;;6.97;;
4766;SDS011;2397;53.576;9.746;2022-12-18T10:29:53;8.70;;;6.43;;
4766;SDS011;2397;53.576;9.746;2022-12-18T10:32:24;9.40;;;6.67;;
4766;SDS011;2397;53.576;9.746;2022-12-18T10:34:53;10.70;;;7.03;;
4766;SDS011;2397;53.576;9.746;2022-12-18T10:37:26;8.33;;;6.67;;
4766;SDS011;2397;53.576;9.746;2022-12-18T10:40:13;10.13;;;6.10;;
4766;SDS011;2397;53.576;9.746;2022-12-18T10:42:50;7.97;;;6.37;;
4766;SDS011;2397;53.576;9.746;2022-12-18T10:45:29;13.00;;;6.10;;
4766;SDS011;2397;53.576;9.746;2022-12-18T10:47:55;11.40;;;8.20;;
4766;SDS011;2397;53.576;9.746;2022-12-18T10:50:29;12.70;;;7.63;;
4766;SDS011;2397;53.576;9.746;2022-12-18T10:53:19;14.17;;;9.00;;
4766;SDS011;2397;53.576;9.746;2022-12-18T10:55:47;12.10;;;6.30;;
4766;SDS011;2397;53.576;9.746;2022-12-18T11:01:02;10.90;;;7.60;;
4766;SDS011;2397;53.576;9.746;2022-12-18T11:06:03;11.97;;;7.53;;
4766;SDS011;2397;53.576;9.746;2022-12-18T11:08:35;12.03;;;7.13;;
4766;SDS011;2397;53.576;9.746;2022-12-18T11:11:03;12.60;;;7.10;;
4766;SDS011;2397;53.576;9.746;2022-12-18T11:13:33;10.60;;;6.97;;
4766;SDS011;2397;53.576;9.746;2022-12-18T11:15:59;11.30;;;7.87;;
4766;SDS011;2397;53.576;9.746;2022-12-18T11:18:27;10.17;;;7.10;;
4766;SDS011;2397;53.576;9.746;2022-12-18T11:20:57;9.93;;;6.17;;
4766;SDS011;2397;53.576;9.746;2022-12-18T11:23:27;10.40;;;7.07;;
4766;SDS011;2397;53.576;9.746;2022-12-18T11:25:55;11.03;;;7.20;;
4766;SDS011;2397;53.576;9.746;2022-12-18T11:28:27;12.47;;;7.00;;
4766;SDS011;2397;53.576;9.746;2022-12-18T11:31:11;14.37;;;6.87;;
4766;SDS011;2397;53.576;9.746;2022-12-18T11:33:39;12.87;;;7.60;;
4766;SDS011;2397;53.576;9.746;2022-12-18T11:36:33;13.87;;;7.40;;
4766;SDS011;2397;53.576;9.746;2022-12-18T11:39:08;14.60;;;7.57;;
4766;SDS011;2397;53.576;9.746;2022-12-18T11:41:59;13.50;;;7.10;;
4766;SDS011;2397;53.576;9.746;2022-12-18T11:44:39;11.43;;;7.00;;
4766;SDS011;2397;53.576;9.746;2022-12-18T11:47:24;10.40;;;6.87;;
4766;SDS011;2397;53.576;9.746;2022-12-18T11:50:10;13.57;;;8.90;;
4766;SDS011;2397;53.576;9.746;2022-12-18T11:52:41;11.13;;;7.70;;
4766;SDS011;2397;53.576;9.746;2022-12-18T11:55:22;10.67;;;6.33;;
4766;SDS011;2397;53.576;9.746;2022-12-18T11:58:07;14.30;;;6.60;;
4766;SDS011;2397;53.576;9.746;2022-12-18T12:00:47;12.37;;;7.00;;
4766;SDS011;2397;53.576;9.746;2022-12-18T12:06:40;11.40;;;6.70;;
4766;SDS011;2397;53.576;9.746;2022-12-18T12:14:44;16.70;;;8.60;;
4766;SDS011;2397;53.576;9.746;2022-12-18T12:17:34;14.40;;;8.60;;
4766;SDS011;2397;53.576;9.746;2022-12-18T12:20:06;11.93;;;7.87;;
4766;SDS011;2397;53.576;9.746;2022-12-18T12:25:40;14.40;;;8.90;;
4766;SDS011;2397;53.576;9.746;2022-12-18T12:31:00;11.47;;;7.60;;
4766;SDS011;2397;53.576;9.746;2022-12-18T12:33:51;13.03;;;6.67;;
4766;SDS011;2397;53.576;9.746;2022-12-18T12:39:07;11.27;;;6.90;;
4766;SDS011;2397;53.576;9.746;2022-12-18T12:41:42;12.40;;;6.90;;
4766;SDS011;2397;53.576;9.746;2022-12-18T12:44:33;9.63;;;6.60;;
4766;SDS011;2397;53.576;9.746;2022-12-18T12:47:17;11.20;;;7.33;;
4766;SDS011;2397;53.576;9.746;2022-12-18T12:49:48;9.73;;;6.43;;
4766;SDS011;2397;53.576;9.746;2022-12-18T12:52:30;9.40;;;6.97;;
4766;SDS011;2397;53.576;9.746;2022-12-18T12:55:04;12.57;;;7.20;;
4766;SDS011;2397;53.576;9.746;2022-12-18T12:57:41;11.53;;;8.13;;
4766;SDS011;2397;53.576;9.746;2022-12-18T13:00:13;11.07;;;5.90;;
4766;SDS011;2397;53.576;9.746;2022-12-18T13:02:47;12.77;;;6.83;;
4766;SDS011;2397;53.576;9.746;2022-12-18T13:05:28;10.77;;;6.63;;
4766;SDS011;2397;53.576;9.746;2022-12-18T13:08:07;16.07;;;9.33;;
4766;SDS011;2397;53.576;9.746;2022-12-18T13:10:38;16.67;;;10.00;;
4766;SDS011;2397;53.576;9.746;2022-12-18T13:13:10;9.70;;;7.37;;
4766;SDS011;2397;53.576;9.746;2022-12-18T13:15:43;14.10;;;7.37;;
4766;SDS011;2397;53.576;9.746;2022-12-18T13:18:18;12.40;;;8.40;;
4766;SDS011;2397;53.576;9.746;2022-12-18T13:20:48;15.77;;;9.03;;
4766;SDS011;2397;53.576;9.746;2022-12-18T13:23:30;13.30;;;8.23;;
4766;SDS011;2397;53.576;9.746;2022-12-18T13:26:00;14.97;;;8.70;;
4766;SDS011;2397;53.576;9.746;2022-12-18T13:28:54;14.93;;;8.47;;
4766;SDS011;2397;53.576;9.746;2022-12-18T13:34:11;12.90;;;8.40;;
4766;SDS011;2397;53.576;9.746;2022-12-18T13:36:52;15.23;;;9.63;;
4766;SDS011;2397;53.576;9.746;2022-12-18T13:39:22;14.07;;;8.87;;
4766;SDS011;2397;53.576;9.746;2022-12-18T13:44:33;16.80;;;9.10;;
4766;SDS011;2397;53.576;9.746;2022-12-18T13:47:24;12.93;;;8.53;;
4766;SDS011;2397;53.576;9.746;2022-12-18T13:49:54;15.70;;;9.40;;
4766;SDS011;2397;53.576;9.746;2022-12-18T13:52:23;15.63;;;9.70;;
4766;SDS011;2397;53.576;9.746;2022-12-18T13:54:53;18.60;;;10.60;;
4766;SDS011;2397;53.576;9.746;2022-12-18T13:59:57;16.40;;;9.63;;
4766;SDS011;2397;53.576;9.746;2022-12-18T14:02:38;17.17;;;10.60;;
4766;SDS011;2397;53.576;9.746;2022-12-18T14:05:04;14.77;;;9.80;;
4766;SDS011;2397;53.576;9.746;2022-12-18T14:07:32;13.67;;;8.83;;
4766;SDS011;2397;53.576;9.746;2022-12-18T14:10:11;15.77;;;8.87;;
4766;SDS011;2397;53.576;9.746;2022-12-18T14:13:05;14.37;;;9.00;;
4766;SDS011;2397;53.576;9.746;2022-12-18T14:15:39;14.40;;;8.60;;
4766;SDS011;2397;53.576;9.746;2022-12-18T14:20:53;17.40;;;9.90;;
4766;SDS011;2397;53.576;9.746;2022-12-18T14:23:29;21.63;;;10.30;;
4766;SDS011;2397;53.576;9.746;2022-12-18T14:28:57;24.47;;;11.13;;
4766;SDS011;2397;53.576;9.746;2022-12-18T14:31:28;22.13;;;10.67;;
4766;SDS011;2397;53.576;9.746;2022-12-18T14:33:56;21.00;;;10.90;;
4766;SDS011;2397;53.576;9.746;2022-12-18T14:36:23;21.90;;;11.63;;
4766;SDS011;2397;53.576;9.746;2022-12-18T14:38:52;22.20;;;11.33;;
4766;SDS011;2397;53.576;9.746;2022-12-18T14:41:20;25.63;;;12.13;;
4766;SDS011;2397;53.576;9.746;2022-12-18T14:43:49;19.07;;;11.20;;
4766;SDS011;2397;53.576;9.746;2022-12-18T14:49:02;22.20;;;11.63;;
4766;SDS011;2397;53.576;9.746;2022-12-18T14:51:47;25.40;;;11.37;;
4766;SDS011;2397;53.576;9.746;2022-12-18T14:54:16;23.73;;;11.50;;
4766;SDS011;2397;53.576;9.746;2022-12-18T14:56:59;18.77;;;11.20;;
4766;SDS011;2397;53.576;9.746;2022-12-18T14:59:28;23.10;;;12.30;;
4766;SDS011;2397;53.576;9.746;2022-12-18T15:04:47;26.50;;;12.97;;
4766;SDS011;2397;53.576;9.746;2022-12-18T15:07:42;24.30;;;12.47;;
4766;SDS011;2397;53.576;9.746;2022-12-18T15:10:12;19.37;;;11.00;;
4766;SDS011;2397;53.576;9.746;2022-12-18T15:12:41;24.37;;;12.30;;
4766;SDS011;2397;53.576;9.746;2022-12-18T15:17:59;21.37;;;12.47;;
4766;SDS011;2397;53.576;9.746;2022-12-18T15:20:52;29.33;;;13.23;;
4766;SDS011;2397;53.576;9.746;2022-12-18T15:26:03;26.60;;;13.90;;
4766;SDS011;2397;53.576;9.746;2022-12-18T15:28:36;27.17;;;12.60;;
4766;SDS011;2397;53.576;9.746;2022-12-18T15:33:36;25.37;;;12.70;;
4766;SDS011;2397;53.576;9.746;2022-12-18T15:36:08;27.33;;;11.80;;
4766;SDS011;2397;53.576;9.746;2022-12-18T15:38:36;29.87;;;14.03;;
4766;SDS011;2397;53.576;9.746;2022-12-18T15:41:03;26.00;;;13.13;;
4766;SDS011;2397;53.576;9.746;2022-12-18T15:43:39;27.80;;;12.90;;
4766;SDS011;2397;53.576;9.746;2022-12-18T15:46:08;25.93;;;13.83;;
4766;SDS011;2397;53.576;9.746;2022-12-18T15:48:39;27.57;;;15.03;;
4766;SDS011;2397;53.576;9.746;2022-12-18T15:51:10;24.37;;;14.60;;
4766;SDS011;2397;53.576;9.746;2022-12-18T15:53:41;29.43;;;13.80;;
4766;SDS011;2397;53.576;9.746;2022-12-18T15:56:10;27.33;;;14.37;;
4766;SDS011;2397;53.576;9.746;2022-12-18T15:58:55;30.00;;;14.43;;
4766;SDS011;2397;53.576;9.746;2022-12-18T16:01:29;24.20;;;12.50;;
4766;SDS011;2397;53.576;9.746;2022-12-18T16:03:57;27.07;;;13.57;;
4766;SDS011;2397;53.576;9.746;2022-12-18T16:06:24;30.20;;;14.23;;
4766;SDS011;2397;53.576;9.746;2022-12-18T16:08:50;28.60;;;14.70;;
4766;SDS011;2397;53.576;9.746;2022-12-18T16:11:22;30.90;;;14.50;;
4766;SDS011;2397;53.576;9.746;2022-12-18T16:14:21;33.90;;;14.40;;
4766;SDS011;2397;53.576;9.746;2022-12-18T16:16:58;26.77;;;14.60;;
4766;SDS011;2397;53.576;9.746;2022-12-18T16:19:26;29.73;;;15.77;;
4766;SDS011;2397;53.576;9.746;2022-12-18T16:21:54;32.00;;;14.93;;
4766;SDS011;2397;53.576;9.746;2022-12-18T16:24:22;33.03;;;16.10;;
4766;SDS011;2397;53.576;9.746;2022-12-18T16:26:53;35.47;;;16.33;;
4766;SDS011;2397;53.576;9.746;2022-12-18T16:29:23;29.00;;;14.77;;
4766;SDS011;2397;53.576;9.746;2022-12-18T16:31:53;27.13;;;14.73;;
4766;SDS011;2397;53.576;9.746;2022-12-18T16:34:21;29.13;;;14.10;;
4766;SDS011;2397;53.576;9.746;2022-12-18T16:37:01;33.47;;;15.17;;
4766;SDS011;2397;53.576;9.746;2022-12-18T16:39:32;27.27;;;12.90;;
4766;SDS011;2397;53.576;9.746;2022-12-18T16:42:01;25.83;;;13.80;;
4766;SDS011;2397;53.576;9.746;2022-12-18T16:44:32;28.37;;;13.20;;
4766;SDS011;2397;53.576;9.746;2022-12-18T16:46:59;33.87;;;14.33;;
4766;SDS011;2397;53.576;9.746;2022-12-18T16:49:28;33.20;;;13.70;;
4766;SDS011;2397;53.576;9.746;2022-12-18T16:51:55;27.00;;;13.83;;
4766;SDS011;2397;53.576;9.746;2022-12-18T16:54:21;30.23;;;14.63;;
4766;SDS011;2397;53.576;9.746;2022-12-18T16:56:49;28.30;;;14.73;;
4766;SDS011;2397;53.576;9.746;2022-12-18T16:59:16;33.40;;;14.70;;